sensor_id;sensor_type;location;lat;lon;timestamp;temperature;humidity
5775;DHT22;2913;51.120;6.772;2023-04-03T00:01:49;3.80;99.90
5775;DHT22;2913;51.120;6.772;2023-04-03T00:04:15;3.70;99.90
5775;DHT22;2913;51.120;6.772;2023-04-03T00:06:41;3.60;99.90
5775;DHT22;2913;51.120;6.772;2023-04-03T00:09:06;3.60;99.90
5775;DHT22;2913;51.120;6.772;2023-04-03T00:11:32;3.50;99.90
5775;DHT22;2913;51.120;6.772;2023-04-03T00:13:58;3.50;99.90
5775;DHT22;2913;51.120;6.772;2023-04-03T00:16:26;3.40;99.90
5775;DHT22;2913;51.120;6.772;2023-04-03T00:18:56;3.30;99.90
5775;DHT22;2913;51.120;6.772;2023-04-03T00:21:22;3.30;99.90
5775;DHT22;2913;51.120;6.772;2023-04-03T00:23:50;3.30;99.90
5775;DHT22;2913;51.120;6.772;2023-04-03T00:26:20;3.30;99.90
5775;DHT22;2913;51.120;6.772;2023-04-03T00:28:46;3.30;99.90
5775;DHT22;2913;51.120;6.772;2023-04-03T00:31:15;3.20;99.90
5775;DHT22;2913;51.120;6.772;2023-04-03T00:33:42;3.20;99.90
5775;DHT22;2913;51.120;6.772;2023-04-03T00:36:09;3.20;99.90
5775;DHT22;2913;51.120;6.772;2023-04-03T00:38:35;3.20;99.90
5775;DHT22;2913;51.120;6.772;2023-04-03T00:41:01;3.20;99.90
5775;DHT22;2913;51.120;6.772;2023-04-03T00:43:27;3.20;99.90
5775;DHT22;2913;51.120;6.772;2023-04-03T00:45:56;3.20;99.90
5775;DHT22;2913;51.120;6.772;2023-04-03T00:51:02;3.10;99.90
5775;DHT22;2913;51.120;6.772;2023-04-03T00:53:38;3.00;99.90
5775;DHT22;2913;51.120;6.772;2023-04-03T00:56:08;3.00;99.90
5775;DHT22;2913;51.120;6.772;2023-04-03T00:58:43;3.00;99.90
5775;DHT22;2913;51.120;6.772;2023-04-03T01:01:14;3.00;99.90
5775;DHT22;2913;51.120;6.772;2023-04-03T01:03:41;2.90;99.90
5775;DHT22;2913;51.120;6.772;2023-04-03T01:06:11;2.90;99.90
5775;DHT22;2913;51.120;6.772;2023-04-03T01:08:38;2.90;99.90
5775;DHT22;2913;51.120;6.772;2023-04-03T01:11:04;3.00;99.90
5775;DHT22;2913;51.120;6.772;2023-04-03T01:13:32;2.90;99.90
5775;DHT22;2913;51.120;6.772;2023-04-03T01:16:01;2.90;99.90
5775;DHT22;2913;51.120;6.772;2023-04-03T01:18:28;2.90;99.90
5775;DHT22;2913;51.120;6.772;2023-04-03T01:26:20;2.90;99.90
5775;DHT22;2913;51.120;6.772;2023-04-03T01:28:46;2.90;99.90
5775;DHT22;2913;51.120;6.772;2023-04-03T01:33:43;2.80;99.90
5775;DHT22;2913;51.120;6.772;2023-04-03T01:36:15;2.80;99.90
5775;DHT22;2913;51.120;6.772;2023-04-03T01:38:43;2.70;99.90
5775;DHT22;2913;51.120;6.772;2023-04-03T01:41:09;2.70;99.90
5775;DHT22;2913;51.120;6.772;2023-04-03T01:43:35;2.60;99.90
5775;DHT22;2913;51.120;6.772;2023-04-03T01:46:00;2.60;99.90
5775;DHT22;2913;51.120;6.772;2023-04-03T01:48:26;2.60;99.90
5775;DHT22;2913;51.120;6.772;2023-04-03T01:50:51;2.60;99.90
5775;DHT22;2913;51.120;6.772;2023-04-03T01:53:19;2.60;99.90
5775;DHT22;2913;51.120;6.772;2023-04-03T01:55:48;2.70;99.90
5775;DHT22;2913;51.120;6.772;2023-04-03T01:58:18;2.60;99.90
5775;DHT22;2913;51.120;6.772;2023-04-03T02:00:44;2.60;99.90
5775;DHT22;2913;51.120;6.772;2023-04-03T02:03:09;2.60;99.90
5775;DHT22;2913;51.120;6.772;2023-04-03T02:05:37;2.60;99.90
5775;DHT22;2913;51.120;6.772;2023-04-03T02:08:06;2.60;99.90
5775;DHT22;2913;51.120;6.772;2023-04-03T02:10:31;2.70;99.90
5775;DHT22;2913;51.120;6.772;2023-04-03T02:12:57;2.70;99.90
5775;DHT22;2913;51.120;6.772;2023-04-03T02:15:23;2.70;99.90
5775;DHT22;2913;51.120;6.772;2023-04-03T02:17:51;2.70;99.90
5775;DHT22;2913;51.120;6.772;2023-04-03T02:20:20;2.60;99.90
5775;DHT22;2913;51.120;6.772;2023-04-03T02:22:46;2.60;99.90
5775;DHT22;2913;51.120;6.772;2023-04-03T02:25:12;2.70;99.90
5775;DHT22;2913;51.120;6.772;2023-04-03T02:27:38;2.70;99.90
5775;DHT22;2913;51.120;6.772;2023-04-03T02:30:05;2.70;99.90
5775;DHT22;2913;51.120;6.772;2023-04-03T02:32:31;2.70;99.90
5775;DHT22;2913;51.120;6.772;2023-04-03T02:34:57;2.70;99.90
5775;DHT22;2913;51.120;6.772;2023-04-03T02:37:22;2.70;99.90
5775;DHT22;2913;51.120;6.772;2023-04-03T02:39:53;2.70;99.90
5775;DHT22;2913;51.120;6.772;2023-04-03T02:42:19;2.70;99.90
5775;DHT22;2913;51.120;6.772;2023-04-03T02:44:44;2.70;99.90
5775;DHT22;2913;51.120;6.772;2023-04-03T02:47:10;2.70;99.90
5775;DHT22;2913;51.120;6.772;2023-04-03T02:49:36;2.70;99.90
5775;DHT22;2913;51.120;6.772;2023-04-03T02:52:03;2.70;99.90
5775;DHT22;2913;51.120;6.772;2023-04-03T02:54:29;2.70;99.90
5775;DHT22;2913;51.120;6.772;2023-04-03T02:56:58;2.70;99.90
5775;DHT22;2913;51.120;6.772;2023-04-03T02:59:24;2.70;99.90
5775;DHT22;2913;51.120;6.772;2023-04-03T03:01:49;2.70;99.90
5775;DHT22;2913;51.120;6.772;2023-04-03T03:04:15;2.70;99.90
5775;DHT22;2913;51.120;6.772;2023-04-03T03:06:41;2.70;99.90
5775;DHT22;2913;51.120;6.772;2023-04-03T03:09:07;2.60;99.90
5775;DHT22;2913;51.120;6.772;2023-04-03T03:11:33;2.60;99.90
5775;DHT22;2913;51.120;6.772;2023-04-03T03:14:01;2.70;99.90
5775;DHT22;2913;51.120;6.772;2023-04-03T03:16:28;2.70;99.90
5775;DHT22;2913;51.120;6.772;2023-04-03T03:18:54;2.70;99.90
5775;DHT22;2913;51.120;6.772;2023-04-03T03:21:20;2.70;99.90
5775;DHT22;2913;51.120;6.772;2023-04-03T03:23:46;2.70;99.90
5775;DHT22;2913;51.120;6.772;2023-04-03T03:26:11;2.70;99.90
5775;DHT22;2913;51.120;6.772;2023-04-03T03:28:39;2.60;99.90
5775;DHT22;2913;51.120;6.772;2023-04-03T03:31:10;2.70;99.90
5775;DHT22;2913;51.120;6.772;2023-04-03T03:33:37;2.60;99.90
5775;DHT22;2913;51.120;6.772;2023-04-03T03:36:03;2.60;99.90
5775;DHT22;2913;51.120;6.772;2023-04-03T03:38:31;2.60;99.90
5775;DHT22;2913;51.120;6.772;2023-04-03T03:40:57;2.60;99.90
5775;DHT22;2913;51.120;6.772;2023-04-03T03:43:25;2.60;99.90
5775;DHT22;2913;51.120;6.772;2023-04-03T03:45:54;2.60;99.90
5775;DHT22;2913;51.120;6.772;2023-04-03T03:48:23;2.60;99.90
5775;DHT22;2913;51.120;6.772;2023-04-03T03:50:48;2.50;99.90
5775;DHT22;2913;51.120;6.772;2023-04-03T03:53:15;2.50;99.90
5775;DHT22;2913;51.120;6.772;2023-04-03T03:55:43;2.40;99.90
5775;DHT22;2913;51.120;6.772;2023-04-03T03:58:08;2.40;99.90
5775;DHT22;2913;51.120;6.772;2023-04-03T04:00:36;2.40;99.90
5775;DHT22;2913;51.120;6.772;2023-04-03T04:03:04;2.40;99.90
5775;DHT22;2913;51.120;6.772;2023-04-03T04:05:30;2.30;99.90
5775;DHT22;2913;51.120;6.772;2023-04-03T04:07:56;2.30;99.90
5775;DHT22;2913;51.120;6.772;2023-04-03T04:10:24;2.30;99.90
5775;DHT22;2913;51.120;6.772;2023-04-03T04:12:52;2.30;99.90
5775;DHT22;2913;51.120;6.772;2023-04-03T04:15:18;2.30;99.90
5775;DHT22;2913;51.120;6.772;2023-04-03T04:17:44;2.30;99.90
5775;DHT22;2913;51.120;6.772;2023-04-03T04:20:10;2.20;99.90
5775;DHT22;2913;51.120;6.772;2023-04-03T04:22:38;2.30;99.90
5775;DHT22;2913;51.120;6.772;2023-04-03T04:25:04;2.20;99.90
5775;DHT22;2913;51.120;6.772;2023-04-03T04:27:30;2.30;99.90
5775;DHT22;2913;51.120;6.772;2023-04-03T04:29:56;2.20;99.90
5775;DHT22;2913;51.120;6.772;2023-04-03T04:32:23;2.20;99.90
5775;DHT22;2913;51.120;6.772;2023-04-03T04:34:51;2.20;99.90
5775;DHT22;2913;51.120;6.772;2023-04-03T04:37:19;2.10;99.90
5775;DHT22;2913;51.120;6.772;2023-04-03T04:39:45;2.10;99.90
5775;DHT22;2913;51.120;6.772;2023-04-03T04:42:13;2.10;99.90
5775;DHT22;2913;51.120;6.772;2023-04-03T04:44:39;2.10;99.90
5775;DHT22;2913;51.120;6.772;2023-04-03T04:47:05;2.10;99.90
5775;DHT22;2913;51.120;6.772;2023-04-03T04:49:33;2.00;99.90
5775;DHT22;2913;51.120;6.772;2023-04-03T04:51:58;2.00;99.90
5775;DHT22;2913;51.120;6.772;2023-04-03T04:54:24;2.00;99.90
5775;DHT22;2913;51.120;6.772;2023-04-03T04:56:50;2.10;99.90
5775;DHT22;2913;51.120;6.772;2023-04-03T04:59:18;2.10;99.90
5775;DHT22;2913;51.120;6.772;2023-04-03T05:01:49;2.10;99.90
5775;DHT22;2913;51.120;6.772;2023-04-03T05:04:14;2.50;99.90
5775;DHT22;2913;51.120;6.772;2023-04-03T05:06:40;2.00;99.90
5775;DHT22;2913;51.120;6.772;2023-04-03T05:09:09;2.10;99.90
5775;DHT22;2913;51.120;6.772;2023-04-03T05:11:39;2.00;99.90
5775;DHT22;2913;51.120;6.772;2023-04-03T05:14:05;1.90;99.90
5775;DHT22;2913;51.120;6.772;2023-04-03T05:16:32;1.80;99.90
5775;DHT22;2913;51.120;6.772;2023-04-03T05:18:58;1.90;99.90
5775;DHT22;2913;51.120;6.772;2023-04-03T05:21:23;2.00;99.90
5775;DHT22;2913;51.120;6.772;2023-04-03T05:23:51;1.90;99.90
5775;DHT22;2913;51.120;6.772;2023-04-03T05:26:17;2.00;99.90
5775;DHT22;2913;51.120;6.772;2023-04-03T05:28:48;2.00;99.90
5775;DHT22;2913;51.120;6.772;2023-04-03T05:31:16;2.00;99.90
5775;DHT22;2913;51.120;6.772;2023-04-03T05:33:42;1.90;99.90
5775;DHT22;2913;51.120;6.772;2023-04-03T05:36:08;2.10;99.90
5775;DHT22;2913;51.120;6.772;2023-04-03T05:38:33;2.20;99.90
5775;DHT22;2913;51.120;6.772;2023-04-03T05:41:02;2.40;99.90
5775;DHT22;2913;51.120;6.772;2023-04-03T05:43:29;2.50;99.90
5775;DHT22;2913;51.120;6.772;2023-04-03T05:45:58;2.60;99.90
5775;DHT22;2913;51.120;6.772;2023-04-03T05:48:26;2.70;99.90
5775;DHT22;2913;51.120;6.772;2023-04-03T05:50:55;2.70;99.90
5775;DHT22;2913;51.120;6.772;2023-04-03T05:53:33;2.70;99.90
5775;DHT22;2913;51.120;6.772;2023-04-03T05:56:00;2.80;99.90
5775;DHT22;2913;51.120;6.772;2023-04-03T05:58:25;2.90;99.90
5775;DHT22;2913;51.120;6.772;2023-04-03T06:00:53;2.80;99.90
5775;DHT22;2913;51.120;6.772;2023-04-03T06:03:19;2.80;99.90
5775;DHT22;2913;51.120;6.772;2023-04-03T06:05:45;2.90;99.90
5775;DHT22;2913;51.120;6.772;2023-04-03T06:08:14;3.10;99.90
5775;DHT22;2913;51.120;6.772;2023-04-03T06:10:40;3.30;99.90
5775;DHT22;2913;51.120;6.772;2023-04-03T06:13:10;3.50;99.90
5775;DHT22;2913;51.120;6.772;2023-04-03T06:15:36;3.80;99.90
5775;DHT22;2913;51.120;6.772;2023-04-03T06:18:03;3.90;99.90
5775;DHT22;2913;51.120;6.772;2023-04-03T06:20:29;4.00;99.90
5775;DHT22;2913;51.120;6.772;2023-04-03T06:22:54;4.20;99.90
5775;DHT22;2913;51.120;6.772;2023-04-03T06:25:20;4.40;99.90
5775;DHT22;2913;51.120;6.772;2023-04-03T06:27:48;4.40;99.90
5775;DHT22;2913;51.120;6.772;2023-04-03T06:30:18;4.90;99.90
5775;DHT22;2913;51.120;6.772;2023-04-03T06:32:44;4.90;99.90
5775;DHT22;2913;51.120;6.772;2023-04-03T06:35:12;5.30;99.90
5775;DHT22;2913;51.120;6.772;2023-04-03T06:37:37;5.20;99.90
5775;DHT22;2913;51.120;6.772;2023-04-03T06:40:04;4.80;99.90
5775;DHT22;2913;51.120;6.772;2023-04-03T06:42:34;5.10;99.90
5775;DHT22;2913;51.120;6.772;2023-04-03T06:45:00;4.90;99.90
5775;DHT22;2913;51.120;6.772;2023-04-03T06:47:26;5.10;99.90
5775;DHT22;2913;51.120;6.772;2023-04-03T06:49:51;5.10;99.90
5775;DHT22;2913;51.120;6.772;2023-04-03T06:52:17;5.30;99.90
5775;DHT22;2913;51.120;6.772;2023-04-03T06:54:45;5.30;99.90
5775;DHT22;2913;51.120;6.772;2023-04-03T06:57:11;5.90;99.90
5775;DHT22;2913;51.120;6.772;2023-04-03T06:59:39;5.70;99.90
5775;DHT22;2913;51.120;6.772;2023-04-03T07:02:08;5.40;99.90
5775;DHT22;2913;51.120;6.772;2023-04-03T07:04:34;5.60;99.90
5775;DHT22;2913;51.120;6.772;2023-04-03T07:07:00;6.10;99.90
5775;DHT22;2913;51.120;6.772;2023-04-03T07:09:28;5.90;99.90
5775;DHT22;2913;51.120;6.772;2023-04-03T07:11:56;5.60;99.90
5775;DHT22;2913;51.120;6.772;2023-04-03T07:14:21;6.30;99.90
5775;DHT22;2913;51.120;6.772;2023-04-03T07:16:47;6.00;99.90
5775;DHT22;2913;51.120;6.772;2023-04-03T07:19:13;6.10;99.90
5775;DHT22;2913;51.120;6.772;2023-04-03T07:21:38;6.20;99.90
5775;DHT22;2913;51.120;6.772;2023-04-03T07:24:04;6.30;99.90
5775;DHT22;2913;51.120;6.772;2023-04-03T07:26:32;6.00;99.90
5775;DHT22;2913;51.120;6.772;2023-04-03T07:29:00;6.50;99.90
5775;DHT22;2913;51.120;6.772;2023-04-03T07:31:26;6.40;99.90
5775;DHT22;2913;51.120;6.772;2023-04-03T07:33:52;6.30;99.90
5775;DHT22;2913;51.120;6.772;2023-04-03T07:36:19;6.30;99.90
5775;DHT22;2913;51.120;6.772;2023-04-03T07:38:45;6.40;99.90
5775;DHT22;2913;51.120;6.772;2023-04-03T07:41:15;6.20;99.90
5775;DHT22;2913;51.120;6.772;2023-04-03T07:43:43;6.20;99.90
5775;DHT22;2913;51.120;6.772;2023-04-03T07:46:09;5.90;99.90
5775;DHT22;2913;51.120;6.772;2023-04-03T07:48:37;6.20;99.70
5775;DHT22;2913;51.120;6.772;2023-04-03T07:51:03;6.50;99.10
5775;DHT22;2913;51.120;6.772;2023-04-03T07:53:29;6.50;99.30
5775;DHT22;2913;51.120;6.772;2023-04-03T07:55:58;6.60;98.50
5775;DHT22;2913;51.120;6.772;2023-04-03T07:58:24;6.30;97.60
5775;DHT22;2913;51.120;6.772;2023-04-03T08:00:51;6.50;97.80
5775;DHT22;2913;51.120;6.772;2023-04-03T08:03:17;6.80;98.30
5775;DHT22;2913;51.120;6.772;2023-04-03T08:05:45;6.40;97.50
5775;DHT22;2913;51.120;6.772;2023-04-03T08:08:16;6.80;98.70
5775;DHT22;2913;51.120;6.772;2023-04-03T08:10:42;6.90;96.50
5775;DHT22;2913;51.120;6.772;2023-04-03T08:13:10;6.90;95.80
5775;DHT22;2913;51.120;6.772;2023-04-03T08:15:38;6.90;94.80
5775;DHT22;2913;51.120;6.772;2023-04-03T08:18:04;7.10;95.80
5775;DHT22;2913;51.120;6.772;2023-04-03T08:20:32;7.00;94.50
5775;DHT22;2913;51.120;6.772;2023-04-03T08:23:00;7.00;93.30
5775;DHT22;2913;51.120;6.772;2023-04-03T08:25:26;7.30;93.80
5775;DHT22;2913;51.120;6.772;2023-04-03T08:27:54;7.20;92.10
5775;DHT22;2913;51.120;6.772;2023-04-03T08:30:20;7.20;87.90
5775;DHT22;2913;51.120;6.772;2023-04-03T08:32:46;7.10;84.30
5775;DHT22;2913;51.120;6.772;2023-04-03T08:35:12;7.00;82.20
5775;DHT22;2913;51.120;6.772;2023-04-03T08:37:38;7.00;82.60
5775;DHT22;2913;51.120;6.772;2023-04-03T08:40:08;7.20;83.10
5775;DHT22;2913;51.120;6.772;2023-04-03T08:50:49;7.20;74.90
5775;DHT22;2913;51.120;6.772;2023-04-03T08:53:19;7.20;74.00
5775;DHT22;2913;51.120;6.772;2023-04-03T08:55:49;7.30;73.10
5775;DHT22;2913;51.120;6.772;2023-04-03T09:00:51;7.20;73.00
5775;DHT22;2913;51.120;6.772;2023-04-03T09:03:22;7.40;75.20
5775;DHT22;2913;51.120;6.772;2023-04-03T09:08:28;7.60;73.90
5775;DHT22;2913;51.120;6.772;2023-04-03T09:19:15;7.40;72.10
5775;DHT22;2913;51.120;6.772;2023-04-03T09:21:45;7.40;71.70
5775;DHT22;2913;51.120;6.772;2023-04-03T09:24:14;7.50;72.00
5775;DHT22;2913;51.120;6.772;2023-04-03T09:27:03;7.50;70.90
5775;DHT22;2913;51.120;6.772;2023-04-03T09:29:31;7.60;72.50
5775;DHT22;2913;51.120;6.772;2023-04-03T09:32:00;7.80;72.30
5775;DHT22;2913;51.120;6.772;2023-04-03T09:34:32;7.70;71.60
5775;DHT22;2913;51.120;6.772;2023-04-03T09:37:02;8.00;73.00
5775;DHT22;2913;51.120;6.772;2023-04-03T09:39:32;7.90;71.90
5775;DHT22;2913;51.120;6.772;2023-04-03T09:42:06;8.00;72.30
5775;DHT22;2913;51.120;6.772;2023-04-03T09:44:41;8.20;72.70
5775;DHT22;2913;51.120;6.772;2023-04-03T09:49:50;8.20;68.80
5775;DHT22;2913;51.120;6.772;2023-04-03T09:52:25;8.30;68.40
5775;DHT22;2913;51.120;6.772;2023-04-03T09:55:13;8.10;66.40
5775;DHT22;2913;51.120;6.772;2023-04-03T09:57:41;7.90;67.80
5775;DHT22;2913;51.120;6.772;2023-04-03T10:00:21;7.80;67.90
5775;DHT22;2913;51.120;6.772;2023-04-03T10:02:53;7.90;69.90
5775;DHT22;2913;51.120;6.772;2023-04-03T10:10:47;8.00;71.00
5775;DHT22;2913;51.120;6.772;2023-04-03T10:13:17;8.20;72.30
5775;DHT22;2913;51.120;6.772;2023-04-03T10:15:59;8.10;71.50
5775;DHT22;2913;51.120;6.772;2023-04-03T10:23:47;8.20;71.00
5775;DHT22;2913;51.120;6.772;2023-04-03T10:34:45;8.40;70.70
5775;DHT22;2913;51.120;6.772;2023-04-03T10:37:57;8.70;72.10
5775;DHT22;2913;51.120;6.772;2023-04-03T10:40:39;8.70;70.80
5775;DHT22;2913;51.120;6.772;2023-04-03T10:50:59;9.10;69.60
5775;DHT22;2913;51.120;6.772;2023-04-03T10:56:39;9.10;69.10
5775;DHT22;2913;51.120;6.772;2023-04-03T11:01:56;9.20;68.60
5775;DHT22;2913;51.120;6.772;2023-04-03T11:04:24;9.20;67.80
5775;DHT22;2913;51.120;6.772;2023-04-03T11:07:02;9.30;67.90
5775;DHT22;2913;51.120;6.772;2023-04-03T11:09:34;9.20;67.40
5775;DHT22;2913;51.120;6.772;2023-04-03T11:12:24;9.40;68.40
5775;DHT22;2913;51.120;6.772;2023-04-03T11:14:51;9.40;68.20
5775;DHT22;2913;51.120;6.772;2023-04-03T11:19:59;9.50;66.40
5775;DHT22;2913;51.120;6.772;2023-04-03T11:22:35;9.20;64.10
5775;DHT22;2913;51.120;6.772;2023-04-03T11:27:37;9.50;65.60
5775;DHT22;2913;51.120;6.772;2023-04-03T11:30:07;9.50;62.20
5775;DHT22;2913;51.120;6.772;2023-04-03T11:35:06;9.70;61.60
5775;DHT22;2913;51.120;6.772;2023-04-03T11:40:08;9.80;62.40
5775;DHT22;2913;51.120;6.772;2023-04-03T11:45:54;9.80;59.50
5775;DHT22;2913;51.120;6.772;2023-04-03T11:50:58;9.90;59.00
5775;DHT22;2913;51.120;6.772;2023-04-03T11:55:54;10.00;59.50
5775;DHT22;2913;51.120;6.772;2023-04-03T11:58:25;10.20;58.70
5775;DHT22;2913;51.120;6.772;2023-04-03T12:05:52;10.60;60.70
5775;DHT22;2913;51.120;6.772;2023-04-03T12:16:32;10.50;60.40
5775;DHT22;2913;51.120;6.772;2023-04-03T12:29:46;10.90;56.20
5775;DHT22;2913;51.120;6.772;2023-04-03T12:35:30;10.80;56.50
5775;DHT22;2913;51.120;6.772;2023-04-03T12:41:18;10.70;57.10
5775;DHT22;2913;51.120;6.772;2023-04-03T12:44:12;10.80;56.30
5775;DHT22;2913;51.120;6.772;2023-04-03T12:46:47;10.70;55.30
5775;DHT22;2913;51.120;6.772;2023-04-03T12:49:41;10.80;55.40
5775;DHT22;2913;51.120;6.772;2023-04-03T12:52:42;10.70;56.20
5775;DHT22;2913;51.120;6.772;2023-04-03T12:55:16;10.90;54.80
5775;DHT22;2913;51.120;6.772;2023-04-03T12:57:48;10.70;54.20
5775;DHT22;2913;51.120;6.772;2023-04-03T13:00:28;10.90;54.70
5775;DHT22;2913;51.120;6.772;2023-04-03T13:02:57;10.60;54.40
5775;DHT22;2913;51.120;6.772;2023-04-03T13:05:25;11.00;55.20
5775;DHT22;2913;51.120;6.772;2023-04-03T13:07:59;10.90;54.60
5775;DHT22;2913;51.120;6.772;2023-04-03T13:10:25;11.00;55.20
5775;DHT22;2913;51.120;6.772;2023-04-03T13:12:52;11.30;55.00
5775;DHT22;2913;51.120;6.772;2023-04-03T13:15:28;11.40;54.80
5775;DHT22;2913;51.120;6.772;2023-04-03T13:17:59;11.00;54.20
5775;DHT22;2913;51.120;6.772;2023-04-03T13:20:26;10.60;54.40
5775;DHT22;2913;51.120;6.772;2023-04-03T13:23:05;10.80;54.50
5775;DHT22;2913;51.120;6.772;2023-04-03T13:25:33;10.90;53.90
5775;DHT22;2913;51.120;6.772;2023-04-03T13:28:02;10.80;54.20
5775;DHT22;2913;51.120;6.772;2023-04-03T13:30:35;10.80;55.00
5775;DHT22;2913;51.120;6.772;2023-04-03T13:33:04;10.70;55.20
5775;DHT22;2913;51.120;6.772;2023-04-03T13:35:40;10.50;55.00
5775;DHT22;2913;51.120;6.772;2023-04-03T13:43:30;10.80;56.00
5775;DHT22;2913;51.120;6.772;2023-04-03T13:48:40;10.70;55.50
5775;DHT22;2913;51.120;6.772;2023-04-03T13:53:58;11.10;55.40
5775;DHT22;2913;51.120;6.772;2023-04-03T13:59:21;10.90;54.90
5775;DHT22;2913;51.120;6.772;2023-04-03T14:04:31;10.80;55.60
5775;DHT22;2913;51.120;6.772;2023-04-03T14:07:00;10.80;55.90
5775;DHT22;2913;51.120;6.772;2023-04-03T14:09:27;11.10;56.30
5775;DHT22;2913;51.120;6.772;2023-04-03T14:12:00;10.90;55.20
5775;DHT22;2913;51.120;6.772;2023-04-03T14:14:31;11.00;55.60
5775;DHT22;2913;51.120;6.772;2023-04-03T14:17:00;10.90;55.00
5775;DHT22;2913;51.120;6.772;2023-04-03T14:19:29;11.00;55.70
5775;DHT22;2913;51.120;6.772;2023-04-03T14:22:05;11.10;56.00
5775;DHT22;2913;51.120;6.772;2023-04-03T14:24:31;11.10;55.30
5775;DHT22;2913;51.120;6.772;2023-04-03T14:26:59;10.80;55.90
5775;DHT22;2913;51.120;6.772;2023-04-03T14:29:28;10.90;56.30
5775;DHT22;2913;51.120;6.772;2023-04-03T14:31:56;10.90;56.90
5775;DHT22;2913;51.120;6.772;2023-04-03T14:34:24;10.90;57.90
5775;DHT22;2913;51.120;6.772;2023-04-03T14:36:49;10.70;58.20
5775;DHT22;2913;51.120;6.772;2023-04-03T14:39:17;10.90;59.50
5775;DHT22;2913;51.120;6.772;2023-04-03T14:41:46;10.90;59.90
5775;DHT22;2913;51.120;6.772;2023-04-03T14:44:12;10.90;59.70
5775;DHT22;2913;51.120;6.772;2023-04-03T14:46:43;11.00;60.20
5775;DHT22;2913;51.120;6.772;2023-04-03T14:49:20;10.90;60.50
5775;DHT22;2913;51.120;6.772;2023-04-03T14:51:46;10.90;60.80
5775;DHT22;2913;51.120;6.772;2023-04-03T14:54:18;10.90;61.40
5775;DHT22;2913;51.120;6.772;2023-04-03T14:56:47;10.80;61.10
5775;DHT22;2913;51.120;6.772;2023-04-03T14:59:14;10.70;59.40
5775;DHT22;2913;51.120;6.772;2023-04-03T15:01:41;10.60;60.70
5775;DHT22;2913;51.120;6.772;2023-04-03T15:04:18;10.80;61.20
5775;DHT22;2913;51.120;6.772;2023-04-03T15:06:45;10.40;61.70
5775;DHT22;2913;51.120;6.772;2023-04-03T15:09:25;10.50;63.10
5775;DHT22;2913;51.120;6.772;2023-04-03T15:11:52;10.50;62.00
5775;DHT22;2913;51.120;6.772;2023-04-03T15:14:18;10.50;62.10
5775;DHT22;2913;51.120;6.772;2023-04-03T15:16:44;10.40;61.90
5775;DHT22;2913;51.120;6.772;2023-04-03T15:19:11;10.50;62.30
5775;DHT22;2913;51.120;6.772;2023-04-03T15:21:37;10.80;63.50
5775;DHT22;2913;51.120;6.772;2023-04-03T15:24:06;10.80;60.60
5775;DHT22;2913;51.120;6.772;2023-04-03T15:26:34;10.60;60.50
5775;DHT22;2913;51.120;6.772;2023-04-03T15:29:00;10.50;61.40
5775;DHT22;2913;51.120;6.772;2023-04-03T15:31:26;10.30;61.40
5775;DHT22;2913;51.120;6.772;2023-04-03T15:33:52;10.20;62.10
5775;DHT22;2913;51.120;6.772;2023-04-03T15:36:20;10.20;62.60
5775;DHT22;2913;51.120;6.772;2023-04-03T15:38:46;10.30;62.60
5775;DHT22;2913;51.120;6.772;2023-04-03T15:41:12;10.10;62.10
5775;DHT22;2913;51.120;6.772;2023-04-03T15:43:38;10.10;62.50
5775;DHT22;2913;51.120;6.772;2023-04-03T15:46:03;10.10;62.40
5775;DHT22;2913;51.120;6.772;2023-04-03T15:48:29;10.10;63.00
5775;DHT22;2913;51.120;6.772;2023-04-03T15:50:56;9.70;63.40
5775;DHT22;2913;51.120;6.772;2023-04-03T15:53:22;9.90;64.00
5775;DHT22;2913;51.120;6.772;2023-04-03T15:55:47;9.90;64.00
5775;DHT22;2913;51.120;6.772;2023-04-03T15:58:13;10.10;64.30
5775;DHT22;2913;51.120;6.772;2023-04-03T16:00:40;10.00;64.40
5775;DHT22;2913;51.120;6.772;2023-04-03T16:03:15;9.90;64.70
5775;DHT22;2913;51.120;6.772;2023-04-03T16:05:43;10.00;63.00
5775;DHT22;2913;51.120;6.772;2023-04-03T16:08:10;9.90;63.70
5775;DHT22;2913;51.120;6.772;2023-04-03T16:10:36;10.00;63.00
5775;DHT22;2913;51.120;6.772;2023-04-03T16:13:03;10.00;63.10
5775;DHT22;2913;51.120;6.772;2023-04-03T16:15:30;9.90;64.40
5775;DHT22;2913;51.120;6.772;2023-04-03T16:18:01;9.80;64.70
5775;DHT22;2913;51.120;6.772;2023-04-03T16:20:27;9.60;65.50
5775;DHT22;2913;51.120;6.772;2023-04-03T16:22:53;9.50;66.60
5775;DHT22;2913;51.120;6.772;2023-04-03T16:25:19;9.50;66.70
5775;DHT22;2913;51.120;6.772;2023-04-03T16:27:45;9.40;66.60
5775;DHT22;2913;51.120;6.772;2023-04-03T16:30:13;9.50;65.90
5775;DHT22;2913;51.120;6.772;2023-04-03T16:32:41;9.60;66.80
5775;DHT22;2913;51.120;6.772;2023-04-03T16:35:09;9.60;66.80
5775;DHT22;2913;51.120;6.772;2023-04-03T16:37:36;9.50;66.60
5775;DHT22;2913;51.120;6.772;2023-04-03T16:40:03;9.40;65.90
5775;DHT22;2913;51.120;6.772;2023-04-03T16:42:31;9.30;66.40
5775;DHT22;2913;51.120;6.772;2023-04-03T16:44:57;9.50;66.80
5775;DHT22;2913;51.120;6.772;2023-04-03T16:47:24;9.40;66.60
5775;DHT22;2913;51.120;6.772;2023-04-03T16:49:49;9.20;66.50
5775;DHT22;2913;51.120;6.772;2023-04-03T16:52:15;9.00;66.10
5775;DHT22;2913;51.120;6.772;2023-04-03T16:54:41;9.00;66.70
5775;DHT22;2913;51.120;6.772;2023-04-03T16:57:06;8.90;67.00
5775;DHT22;2913;51.120;6.772;2023-04-03T16:59:32;8.90;66.80
5775;DHT22;2913;51.120;6.772;2023-04-03T17:01:58;9.10;68.30
5775;DHT22;2913;51.120;6.772;2023-04-03T17:04:23;8.90;66.90
5775;DHT22;2913;51.120;6.772;2023-04-03T17:06:51;8.80;67.20
5775;DHT22;2913;51.120;6.772;2023-04-03T17:09:17;8.70;67.20
5775;DHT22;2913;51.120;6.772;2023-04-03T17:11:45;8.60;67.60
5775;DHT22;2913;51.120;6.772;2023-04-03T17:14:11;8.60;68.10
5775;DHT22;2913;51.120;6.772;2023-04-03T17:16:37;8.60;69.10
5775;DHT22;2913;51.120;6.772;2023-04-03T17:19:03;8.50;68.50
5775;DHT22;2913;51.120;6.772;2023-04-03T17:21:34;8.50;68.50
5775;DHT22;2913;51.120;6.772;2023-04-03T17:24:03;8.40;68.60
5775;DHT22;2913;51.120;6.772;2023-04-03T17:26:33;8.50;69.30
5775;DHT22;2913;51.120;6.772;2023-04-03T17:28:58;8.30;69.00
5775;DHT22;2913;51.120;6.772;2023-04-03T17:31:24;8.20;69.00
5775;DHT22;2913;51.120;6.772;2023-04-03T17:33:49;8.20;69.20
5775;DHT22;2913;51.120;6.772;2023-04-03T17:36:18;8.10;70.10
5775;DHT22;2913;51.120;6.772;2023-04-03T17:38:46;8.10;70.00
5775;DHT22;2913;51.120;6.772;2023-04-03T17:41:13;8.00;70.20
5775;DHT22;2913;51.120;6.772;2023-04-03T17:43:39;8.10;70.80
5775;DHT22;2913;51.120;6.772;2023-04-03T17:46:07;8.00;70.60
5775;DHT22;2913;51.120;6.772;2023-04-03T17:48:38;8.00;70.10
5775;DHT22;2913;51.120;6.772;2023-04-03T17:51:09;7.80;69.90
5775;DHT22;2913;51.120;6.772;2023-04-03T17:53:35;7.90;70.30
5775;DHT22;2913;51.120;6.772;2023-04-03T17:56:06;7.70;69.60
5775;DHT22;2913;51.120;6.772;2023-04-03T17:58:34;7.80;70.20
5775;DHT22;2913;51.120;6.772;2023-04-03T18:01:12;7.80;71.00
5775;DHT22;2913;51.120;6.772;2023-04-03T18:03:38;7.70;70.90
5775;DHT22;2913;51.120;6.772;2023-04-03T18:06:07;7.60;71.10
5775;DHT22;2913;51.120;6.772;2023-04-03T18:08:40;7.60;70.90
5775;DHT22;2913;51.120;6.772;2023-04-03T18:11:07;7.50;70.90
5775;DHT22;2913;51.120;6.772;2023-04-03T18:13:33;7.50;71.10
5775;DHT22;2913;51.120;6.772;2023-04-03T18:16:03;7.50;71.60
5775;DHT22;2913;51.120;6.772;2023-04-03T18:18:31;7.40;71.90
5775;DHT22;2913;51.120;6.772;2023-04-03T18:20:57;7.30;72.10
5775;DHT22;2913;51.120;6.772;2023-04-03T18:23:24;7.30;72.40
5775;DHT22;2913;51.120;6.772;2023-04-03T18:25:51;7.20;72.70
5775;DHT22;2913;51.120;6.772;2023-04-03T18:28:19;7.10;73.40
5775;DHT22;2913;51.120;6.772;2023-04-03T18:30:45;7.20;73.80
5775;DHT22;2913;51.120;6.772;2023-04-03T18:33:11;7.10;73.70
5775;DHT22;2913;51.120;6.772;2023-04-03T18:35:36;7.10;73.60